sensor_id;sensor_type;location;lat;lon;timestamp;P1;durP1;ratioP1;P2;durP2;ratioP2
11486;SDS011;10510;47.942;9.442;2022-07-29T00:01:04;14.65;;;9.38;;
11486;SDS011;10510;47.942;9.442;2022-07-29T00:03:04;13.05;;;9.85;;
11486;SDS011;10510;47.942;9.442;2022-07-29T00:05:05;12.85;;;9.52;;
11486;SDS011;10510;47.942;9.442;2022-07-29T00:07:05;14.13;;;10.18;;
11486;SDS011;10510;47.942;9.442;2022-07-29T00:09:06;13.60;;;9.80;;
11486;SDS011;10510;47.942;9.442;2022-07-29T00:11:06;12.98;;;10.23;;
11486;SDS011;10510;47.942;9.442;2022-07-29T00:13:07;20.42;;;10.10;;
11486;SDS011;10510;47.942;9.442;2022-07-29T00:15:07;13.75;;;9.57;;
11486;SDS011;10510;47.942;9.442;2022-07-29T00:17:08;12.32;;;9.88;;
11486;SDS011;10510;47.942;9.442;2022-07-29T00:19:08;13.57;;;10.05;;
11486;SDS011;10510;47.942;9.442;2022-07-29T00:21:09;13.18;;;9.70;;
11486;SDS011;10510;47.942;9.442;2022-07-29T00:23:09;30.92;;;11.10;;
11486;SDS011;10510;47.942;9.442;2022-07-29T00:25:09;14.45;;;10.35;;
11486;SDS011;10510;47.942;9.442;2022-07-29T00:27:11;11.68;;;9.00;;
11486;SDS011;10510;47.942;9.442;2022-07-29T00:29:12;14.25;;;9.57;;
11486;SDS011;10510;47.942;9.442;2022-07-29T00:31:12;12.27;;;9.13;;
11486;SDS011;10510;47.942;9.442;2022-07-29T00:33:12;21.77;;;10.38;;
11486;SDS011;10510;47.942;9.442;2022-07-29T00:35:13;12.32;;;9.27;;
11486;SDS011;10510;47.942;9.442;2022-07-29T00:37:31;12.07;;;9.60;;
11486;SDS011;10510;47.942;9.442;2022-07-29T00:39:32;14.90;;;10.05;;
11486;SDS011;10510;47.942;9.442;2022-07-29T00:41:32;14.02;;;10.07;;
11486;SDS011;10510;47.942;9.442;2022-07-29T00:43:32;15.30;;;9.32;;
11486;SDS011;10510;47.942;9.442;2022-07-29T00:45:32;13.45;;;9.05;;
11486;SDS011;10510;47.942;9.442;2022-07-29T00:47:33;14.15;;;9.45;;
11486;SDS011;10510;47.942;9.442;2022-07-29T00:49:33;15.02;;;8.93;;
11486;SDS011;10510;47.942;9.442;2022-07-29T00:51:37;12.27;;;9.52;;
11486;SDS011;10510;47.942;9.442;2022-07-29T00:53:38;15.55;;;9.73;;
11486;SDS011;10510;47.942;9.442;2022-07-29T00:55:38;13.60;;;9.75;;
11486;SDS011;10510;47.942;9.442;2022-07-29T00:57:39;14.95;;;8.98;;
11486;SDS011;10510;47.942;9.442;2022-07-29T00:59:40;13.65;;;8.60;;
11486;SDS011;10510;47.942;9.442;2022-07-29T01:01:41;16.80;;;10.00;;
11486;SDS011;10510;47.942;9.442;2022-07-29T01:03:41;12.77;;;9.55;;
11486;SDS011;10510;47.942;9.442;2022-07-29T01:05:42;14.38;;;9.75;;
11486;SDS011;10510;47.942;9.442;2022-07-29T01:07:45;9.40;;;8.40;;
11486;SDS011;10510;47.942;9.442;2022-07-29T01:09:46;11.02;;;7.72;;
11486;SDS011;10510;47.942;9.442;2022-07-29T01:11:47;9.55;;;8.23;;
11486;SDS011;10510;47.942;9.442;2022-07-29T01:13:48;11.75;;;8.77;;
11486;SDS011;10510;47.942;9.442;2022-07-29T01:15:50;20.75;;;8.60;;
11486;SDS011;10510;47.942;9.442;2022-07-29T01:22:31;20.35;;;8.05;;
11486;SDS011;10510;47.942;9.442;2022-07-29T01:29:41;33.40;;;7.40;;
11486;SDS011;10510;47.942;9.442;2022-07-29T01:31:47;127.63;;;8.18;;
11486;SDS011;10510;47.942;9.442;2022-07-29T01:34:06;84.07;;;8.60;;
11486;SDS011;10510;47.942;9.442;2022-07-29T01:36:11;47.28;;;8.75;;
11486;SDS011;10510;47.942;9.442;2022-07-29T01:38:19;27.27;;;8.35;;
11486;SDS011;10510;47.942;9.442;2022-07-29T01:40:23;41.05;;;8.35;;
11486;SDS011;10510;47.942;9.442;2022-07-29T01:44:48;56.17;;;8.82;;
11486;SDS011;10510;47.942;9.442;2022-07-29T01:48:59;22.50;;;8.20;;
11486;SDS011;10510;47.942;9.442;2022-07-29T01:53:16;7.68;;;6.88;;
11486;SDS011;10510;47.942;9.442;2022-07-29T01:55:27;9.23;;;7.32;;
11486;SDS011;10510;47.942;9.442;2022-07-29T01:57:30;14.07;;;7.22;;
11486;SDS011;10510;47.942;9.442;2022-07-29T01:59:33;8.30;;;7.00;;
11486;SDS011;10510;47.942;9.442;2022-07-29T02:01:36;9.88;;;7.40;;
11486;SDS011;10510;47.942;9.442;2022-07-29T02:03:39;7.40;;;5.93;;
11486;SDS011;10510;47.942;9.442;2022-07-29T02:05:45;10.63;;;7.30;;
11486;SDS011;10510;47.942;9.442;2022-07-29T02:07:48;9.38;;;8.25;;
11486;SDS011;10510;47.942;9.442;2022-07-29T02:09:50;12.52;;;8.48;;
11486;SDS011;10510;47.942;9.442;2022-07-29T02:11:53;12.65;;;8.55;;
11486;SDS011;10510;47.942;9.442;2022-07-29T02:13:55;11.68;;;8.18;;
11486;SDS011;10510;47.942;9.442;2022-07-29T02:15:57;11.70;;;7.80;;
11486;SDS011;10510;47.942;9.442;2022-07-29T02:18:18;12.05;;;8.18;;
11486;SDS011;10510;47.942;9.442;2022-07-29T02:20:20;9.00;;;7.55;;
11486;SDS011;10510;47.942;9.442;2022-07-29T02:22:22;13.85;;;8.50;;
11486;SDS011;10510;47.942;9.442;2022-07-29T02:24:26;11.25;;;8.32;;
11486;SDS011;10510;47.942;9.442;2022-07-29T02:26:28;12.07;;;8.00;;
11486;SDS011;10510;47.942;9.442;2022-07-29T02:28:32;9.32;;;7.65;;
11486;SDS011;10510;47.942;9.442;2022-07-29T02:30:35;6.47;;;5.78;;
11486;SDS011;10510;47.942;9.442;2022-07-29T02:32:39;8.75;;;6.05;;
11486;SDS011;10510;47.942;9.442;2022-07-29T02:34:41;10.20;;;5.70;;
11486;SDS011;10510;47.942;9.442;2022-07-29T02:36:43;6.88;;;5.22;;
11486;SDS011;10510;47.942;9.442;2022-07-29T02:38:45;6.22;;;5.18;;
11486;SDS011;10510;47.942;9.442;2022-07-29T02:40:51;5.50;;;4.93;;
11486;SDS011;10510;47.942;9.442;2022-07-29T02:42:54;7.13;;;5.90;;
11486;SDS011;10510;47.942;9.442;2022-07-29T02:44:55;11.23;;;5.82;;
11486;SDS011;10510;47.942;9.442;2022-07-29T02:47:00;7.35;;;6.47;;
11486;SDS011;10510;47.942;9.442;2022-07-29T02:49:13;7.57;;;5.80;;
11486;SDS011;10510;47.942;9.442;2022-07-29T02:51:19;6.28;;;5.65;;
11486;SDS011;10510;47.942;9.442;2022-07-29T02:53:25;7.22;;;6.40;;
11486;SDS011;10510;47.942;9.442;2022-07-29T02:55:33;6.38;;;5.78;;
11486;SDS011;10510;47.942;9.442;2022-07-29T02:57:51;5.90;;;5.18;;
11486;SDS011;10510;47.942;9.442;2022-07-29T02:59:58;7.57;;;5.13;;
11486;SDS011;10510;47.942;9.442;2022-07-29T03:02:04;6.80;;;4.88;;
11486;SDS011;10510;47.942;9.442;2022-07-29T03:04:06;4.78;;;4.38;;
11486;SDS011;10510;47.942;9.442;2022-07-29T03:06:09;7.95;;;5.32;;
11486;SDS011;10510;47.942;9.442;2022-07-29T03:08:12;6.43;;;4.93;;
11486;SDS011;10510;47.942;9.442;2022-07-29T03:10:14;7.05;;;5.15;;
11486;SDS011;10510;47.942;9.442;2022-07-29T03:12:15;5.00;;;4.50;;
11486;SDS011;10510;47.942;9.442;2022-07-29T03:14:16;7.55;;;5.22;;
11486;SDS011;10510;47.942;9.442;2022-07-29T03:16:19;7.00;;;5.03;;
11486;SDS011;10510;47.942;9.442;2022-07-29T03:18:20;7.72;;;5.38;;
11486;SDS011;10510;47.942;9.442;2022-07-29T03:20:20;6.57;;;4.90;;
11486;SDS011;10510;47.942;9.442;2022-07-29T03:22:21;7.00;;;4.70;;
11486;SDS011;10510;47.942;9.442;2022-07-29T03:24:29;5.05;;;4.53;;
11486;SDS011;10510;47.942;9.442;2022-07-29T03:26:30;7.22;;;4.40;;
11486;SDS011;10510;47.942;9.442;2022-07-29T03:28:30;5.43;;;4.18;;
11486;SDS011;10510;47.942;9.442;2022-07-29T03:30:30;5.55;;;5.03;;
11486;SDS011;10510;47.942;9.442;2022-07-29T03:32:31;6.03;;;4.90;;
11486;SDS011;10510;47.942;9.442;2022-07-29T03:34:31;6.40;;;4.85;;
11486;SDS011;10510;47.942;9.442;2022-07-29T03:36:31;6.47;;;4.78;;
11486;SDS011;10510;47.942;9.442;2022-07-29T03:38:33;7.22;;;5.30;;
11486;SDS011;10510;47.942;9.442;2022-07-29T03:40:38;7.15;;;4.90;;
11486;SDS011;10510;47.942;9.442;2022-07-29T03:42:42;10.88;;;5.70;;
11486;SDS011;10510;47.942;9.442;2022-07-29T03:44:45;10.45;;;5.38;;
11486;SDS011;10510;47.942;9.442;2022-07-29T03:46:48;20.60;;;6.20;;
11486;SDS011;10510;47.942;9.442;2022-07-29T03:48:52;8.73;;;5.57;;
11486;SDS011;10510;47.942;9.442;2022-07-29T03:50:58;9.10;;;6.00;;
11486;SDS011;10510;47.942;9.442;2022-07-29T03:52:58;15.02;;;6.68;;
11486;SDS011;10510;47.942;9.442;2022-07-29T03:54:59;19.70;;;6.65;;
11486;SDS011;10510;47.942;9.442;2022-07-29T03:57:00;12.35;;;6.35;;
11486;SDS011;10510;47.942;9.442;2022-07-29T03:59:05;8.27;;;6.63;;
11486;SDS011;10510;47.942;9.442;2022-07-29T04:01:07;12.23;;;6.65;;
11486;SDS011;10510;47.942;9.442;2022-07-29T04:03:08;8.73;;;6.65;;
11486;SDS011;10510;47.942;9.442;2022-07-29T04:05:11;10.48;;;7.10;;
11486;SDS011;10510;47.942;9.442;2022-07-29T04:07:13;11.82;;;6.95;;
11486;SDS011;10510;47.942;9.442;2022-07-29T04:09:14;7.80;;;6.03;;
11486;SDS011;10510;47.942;9.442;2022-07-29T04:11:14;8.98;;;6.25;;
11486;SDS011;10510;47.942;9.442;2022-07-29T04:13:15;7.82;;;6.60;;
11486;SDS011;10510;47.942;9.442;2022-07-29T04:15:15;9.32;;;6.82;;
11486;SDS011;10510;47.942;9.442;2022-07-29T04:17:15;7.97;;;6.88;;
11486;SDS011;10510;47.942;9.442;2022-07-29T04:19:16;9.25;;;6.55;;
11486;SDS011;10510;47.942;9.442;2022-07-29T04:21:16;10.73;;;7.07;;
11486;SDS011;10510;47.942;9.442;2022-07-29T04:23:16;8.63;;;6.25;;
11486;SDS011;10510;47.942;9.442;2022-07-29T04:25:16;8.90;;;6.90;;
11486;SDS011;10510;47.942;9.442;2022-07-29T04:27:17;8.02;;;6.15;;
11486;SDS011;10510;47.942;9.442;2022-07-29T04:29:17;8.43;;;7.40;;
11486;SDS011;10510;47.942;9.442;2022-07-29T04:31:17;10.00;;;7.78;;
11486;SDS011;10510;47.942;9.442;2022-07-29T04:33:18;8.35;;;7.00;;
11486;SDS011;10510;47.942;9.442;2022-07-29T04:35:19;11.85;;;6.82;;
11486;SDS011;10510;47.942;9.442;2022-07-29T04:37:19;10.77;;;8.57;;
11486;SDS011;10510;47.942;9.442;2022-07-29T04:39:20;8.00;;;6.40;;
11486;SDS011;10510;47.942;9.442;2022-07-29T04:41:20;7.90;;;5.70;;
11486;SDS011;10510;47.942;9.442;2022-07-29T04:43:20;10.52;;;6.25;;
11486;SDS011;10510;47.942;9.442;2022-07-29T04:45:20;16.13;;;8.82;;
11486;SDS011;10510;47.942;9.442;2022-07-29T04:47:21;8.23;;;6.47;;
11486;SDS011;10510;47.942;9.442;2022-07-29T04:49:21;9.50;;;5.47;;
11486;SDS011;10510;47.942;9.442;2022-07-29T04:51:21;7.35;;;5.95;;
11486;SDS011;10510;47.942;9.442;2022-07-29T04:53:22;10.07;;;6.28;;
11486;SDS011;10510;47.942;9.442;2022-07-29T04:55:23;7.20;;;6.50;;
11486;SDS011;10510;47.942;9.442;2022-07-29T04:57:23;9.50;;;6.60;;
11486;SDS011;10510;47.942;9.442;2022-07-29T04:59:23;13.82;;;6.82;;
11486;SDS011;10510;47.942;9.442;2022-07-29T05:01:24;7.32;;;6.28;;
11486;SDS011;10510;47.942;9.442;2022-07-29T05:03:25;9.27;;;7.20;;
11486;SDS011;10510;47.942;9.442;2022-07-29T05:05:25;8.68;;;6.85;;
11486;SDS011;10510;47.942;9.442;2022-07-29T05:07:25;11.65;;;7.20;;
11486;SDS011;10510;47.942;9.442;2022-07-29T05:09:26;7.53;;;6.05;;
11486;SDS011;10510;47.942;9.442;2022-07-29T05:11:26;9.13;;;6.72;;
11486;SDS011;10510;47.942;9.442;2022-07-29T05:13:26;9.63;;;6.28;;
11486;SDS011;10510;47.942;9.442;2022-07-29T05:15:26;7.88;;;6.25;;
11486;SDS011;10510;47.942;9.442;2022-07-29T05:17:27;14.65;;;5.97;;
11486;SDS011;10510;47.942;9.442;2022-07-29T05:19:27;12.80;;;6.35;;
11486;SDS011;10510;47.942;9.442;2022-07-29T05:21:27;9.68;;;5.75;;
11486;SDS011;10510;47.942;9.442;2022-07-29T05:23:28;10.55;;;5.88;;
11486;SDS011;10510;47.942;9.442;2022-07-29T05:25:28;8.95;;;5.55;;
11486;SDS011;10510;47.942;9.442;2022-07-29T05:27:29;9.70;;;5.93;;
11486;SDS011;10510;47.942;9.442;2022-07-29T05:29:29;10.85;;;6.50;;
11486;SDS011;10510;47.942;9.442;2022-07-29T05:31:29;12.90;;;7.40;;
11486;SDS011;10510;47.942;9.442;2022-07-29T05:33:30;7.40;;;5.85;;
11486;SDS011;10510;47.942;9.442;2022-07-29T05:35:30;12.52;;;6.25;;
11486;SDS011;10510;47.942;9.442;2022-07-29T05:37:30;7.65;;;5.68;;
11486;SDS011;10510;47.942;9.442;2022-07-29T05:39:30;13.20;;;4.85;;
11486;SDS011;10510;47.942;9.442;2022-07-29T05:41:31;11.35;;;5.43;;
11486;SDS011;10510;47.942;9.442;2022-07-29T05:43:32;8.65;;;5.03;;
11486;SDS011;10510;47.942;9.442;2022-07-29T05:45:33;8.55;;;6.85;;
11486;SDS011;10510;47.942;9.442;2022-07-29T05:47:33;12.07;;;5.60;;
11486;SDS011;10510;47.942;9.442;2022-07-29T05:49:33;12.82;;;6.15;;
11486;SDS011;10510;47.942;9.442;2022-07-29T05:51:34;7.80;;;5.82;;
11486;SDS011;10510;47.942;9.442;2022-07-29T05:53:34;8.70;;;5.80;;
11486;SDS011;10510;47.942;9.442;2022-07-29T05:55:35;8.82;;;5.53;;
11486;SDS011;10510;47.942;9.442;2022-07-29T05:57:35;6.97;;;5.40;;
11486;SDS011;10510;47.942;9.442;2022-07-29T05:59:36;10.02;;;5.78;;
11486;SDS011;10510;47.942;9.442;2022-07-29T06:01:36;6.68;;;5.55;;
11486;SDS011;10510;47.942;9.442;2022-07-29T06:03:39;10.82;;;5.72;;
11486;SDS011;10510;47.942;9.442;2022-07-29T06:05:41;12.27;;;5.45;;
11486;SDS011;10510;47.942;9.442;2022-07-29T06:07:41;7.95;;;5.80;;
11486;SDS011;10510;47.942;9.442;2022-07-29T06:09:42;10.48;;;7.38;;
11486;SDS011;10510;47.942;9.442;2022-07-29T06:11:42;11.15;;;5.90;;
11486;SDS011;10510;47.942;9.442;2022-07-29T06:13:42;11.15;;;6.05;;
11486;SDS011;10510;47.942;9.442;2022-07-29T06:15:42;10.90;;;5.03;;
11486;SDS011;10510;47.942;9.442;2022-07-29T06:17:44;9.35;;;5.80;;
11486;SDS011;10510;47.942;9.442;2022-07-29T06:19:44;9.10;;;4.90;;
11486;SDS011;10510;47.942;9.442;2022-07-29T06:21:45;9.60;;;5.10;;
11486;SDS011;10510;47.942;9.442;2022-07-29T06:23:46;6.03;;;5.07;;
11486;SDS011;10510;47.942;9.442;2022-07-29T06:25:46;7.38;;;4.88;;
11486;SDS011;10510;47.942;9.442;2022-07-29T06:27:47;8.30;;;4.40;;
11486;SDS011;10510;47.942;9.442;2022-07-29T06:29:47;5.47;;;4.13;;
11486;SDS011;10510;47.942;9.442;2022-07-29T06:31:47;6.07;;;4.68;;
11486;SDS011;10510;47.942;9.442;2022-07-29T06:33:47;6.15;;;3.97;;
11486;SDS011;10510;47.942;9.442;2022-07-29T06:35:48;7.50;;;4.00;;
11486;SDS011;10510;47.942;9.442;2022-07-29T06:37:49;6.93;;;4.93;;
11486;SDS011;10510;47.942;9.442;2022-07-29T06:39:49;4.40;;;3.55;;
11486;SDS011;10510;47.942;9.442;2022-07-29T06:42:09;8.15;;;3.40;;
11486;SDS011;10510;47.942;9.442;2022-07-29T06:44:10;5.47;;;3.28;;
11486;SDS011;10510;47.942;9.442;2022-07-29T06:46:11;6.90;;;3.58;;
11486;SDS011;10510;47.942;9.442;2022-07-29T06:48:13;3.78;;;3.13;;
11486;SDS011;10510;47.942;9.442;2022-07-29T06:50:14;5.47;;;3.17;;
11486;SDS011;10510;47.942;9.442;2022-07-29T06:52:14;3.08;;;2.78;;
11486;SDS011;10510;47.942;9.442;2022-07-29T06:54:15;6.32;;;2.80;;
11486;SDS011;10510;47.942;9.442;2022-07-29T06:56:15;5.05;;;3.10;;
11486;SDS011;10510;47.942;9.442;2022-07-29T06:58:16;7.38;;;3.60;;
11486;SDS011;10510;47.942;9.442;2022-07-29T07:00:17;5.65;;;3.05;;
11486;SDS011;10510;47.942;9.442;2022-07-29T07:02:18;5.88;;;3.33;;
11486;SDS011;10510;47.942;9.442;2022-07-29T07:04:18;6.50;;;2.97;;
11486;SDS011;10510;47.942;9.442;2022-07-29T07:06:18;3.97;;;3.00;;
11486;SDS011;10510;47.942;9.442;2022-07-29T07:08:19;4.15;;;2.92;;
11486;SDS011;10510;47.942;9.442;2022-07-29T07:10:21;5.78;;;3.20;;
11486;SDS011;10510;47.942;9.442;2022-07-29T07:12:22;3.15;;;2.85;;
11486;SDS011;10510;47.942;9.442;2022-07-29T07:14:22;6.38;;;2.70;;
11486;SDS011;10510;47.942;9.442;2022-07-29T07:16:22;3.53;;;3.15;;
11486;SDS011;10510;47.942;9.442;2022-07-29T07:18:22;5.75;;;3.00;;
11486;SDS011;10510;47.942;9.442;2022-07-29T07:20:23;6.10;;;3.00;;
11486;SDS011;10510;47.942;9.442;2022-07-29T07:22:24;3.55;;;2.70;;
11486;SDS011;10510;47.942;9.442;2022-07-29T07:24:25;4.78;;;3.08;;
11486;SDS011;10510;47.942;9.442;2022-07-29T07:26:25;3.35;;;2.75;;
11486;SDS011;10510;47.942;9.442;2022-07-29T07:28:26;3.65;;;2.83;;
11486;SDS011;10510;47.942;9.442;2022-07-29T07:30:26;5.03;;;3.47;;
11486;SDS011;10510;47.942;9.442;2022-07-29T07:32:27;3.63;;;3.05;;
11486;SDS011;10510;47.942;9.442;2022-07-29T07:34:27;4.32;;;2.50;;
11486;SDS011;10510;47.942;9.442;2022-07-29T07:36:28;2.88;;;2.22;;
11486;SDS011;10510;47.942;9.442;2022-07-29T07:38:28;3.55;;;2.50;;
11486;SDS011;10510;47.942;9.442;2022-07-29T07:40:28;3.33;;;2.08;;
11486;SDS011;10510;47.942;9.442;2022-07-29T07:42:29;2.92;;;2.35;;
11486;SDS011;10510;47.942;9.442;2022-07-29T07:44:29;4.15;;;2.38;;
11486;SDS011;10510;47.942;9.442;2022-07-29T07:46:30;3.50;;;2.25;;
11486;SDS011;10510;47.942;9.442;2022-07-29T07:48:30;3.70;;;1.85;;
11486;SDS011;10510;47.942;9.442;2022-07-29T07:50:30;2.42;;;1.80;;
11486;SDS011;10510;47.942;9.442;2022-07-29T07:52:31;6.18;;;2.42;;
11486;SDS011;10510;47.942;9.442;2022-07-29T07:54:31;3.72;;;2.28;;
11486;SDS011;10510;47.942;9.442;2022-07-29T07:56:32;3.33;;;2.28;;
11486;SDS011;10510;47.942;9.442;2022-07-29T07:58:32;3.83;;;2.70;;
11486;SDS011;10510;47.942;9.442;2022-07-29T08:00:34;2.28;;;1.90;;
11486;SDS011;10510;47.942;9.442;2022-07-29T08:02:35;3.33;;;2.15;;
11486;SDS011;10510;47.942;9.442;2022-07-29T08:04:35;4.65;;;2.20;;
11486;SDS011;10510;47.942;9.442;2022-07-29T08:06:36;4.57;;;2.50;;
11486;SDS011;10510;47.942;9.442;2022-07-29T08:08:36;3.15;;;2.00;;
11486;SDS011;10510;47.942;9.442;2022-07-29T08:10:37;3.65;;;2.55;;
11486;SDS011;10510;47.942;9.442;2022-07-29T08:12:52;4.38;;;2.40;;
11486;SDS011;10510;47.942;9.442;2022-07-29T08:14:52;2.40;;;2.05;;
11486;SDS011;10510;47.942;9.442;2022-07-29T08:16:53;4.28;;;2.17;;
11486;SDS011;10510;47.942;9.442;2022-07-29T08:18:54;6.22;;;2.22;;
11486;SDS011;10510;47.942;9.442;2022-07-29T08:20:56;3.08;;;2.03;;
11486;SDS011;10510;47.942;9.442;2022-07-29T08:22:57;4.32;;;2.20;;
11486;SDS011;10510;47.942;9.442;2022-07-29T08:24:57;2.25;;;1.70;;
11486;SDS011;10510;47.942;9.442;2022-07-29T08:26:58;3.28;;;1.80;;
11486;SDS011;10510;47.942;9.442;2022-07-29T08:28:58;3.42;;;1.67;;
11486;SDS011;10510;47.942;9.442;2022-07-29T08:30:58;3.85;;;1.60;;
11486;SDS011;10510;47.942;9.442;2022-07-29T08:32:59;5.43;;;1.83;;
11486;SDS011;10510;47.942;9.442;2022-07-29T08:34:59;2.25;;;1.60;;
11486;SDS011;10510;47.942;9.442;2022-07-29T08:37:00;3.47;;;1.50;;
11486;SDS011;10510;47.942;9.442;2022-07-29T08:39:01;3.63;;;1.55;;
11486;SDS011;10510;47.942;9.442;2022-07-29T08:41:02;2.85;;;1.30;;
11486;SDS011;10510;47.942;9.442;2022-07-29T08:43:07;5.85;;;1.58;;
11486;SDS011;10510;47.942;9.442;2022-07-29T08:45:08;2.10;;;1.52;;
11486;SDS011;10510;47.942;9.442;2022-07-29T08:47:08;2.75;;;1.75;;
11486;SDS011;10510;47.942;9.442;2022-07-29T08:49:09;4.05;;;1.70;;
11486;SDS011;10510;47.942;9.442;2022-07-29T08:51:12;2.92;;;1.80;;
11486;SDS011;10510;47.942;9.442;2022-07-29T08:53:16;3.88;;;1.50;;
11486;SDS011;10510;47.942;9.442;2022-07-29T08:55:17;5.00;;;2.10;;
11486;SDS011;10510;47.942;9.442;2022-07-29T08:57:18;2.60;;;1.52;;
11486;SDS011;10510;47.942;9.442;2022-07-29T08:59:20;4.07;;;1.90;;
11486;SDS011;10510;47.942;9.442;2022-07-29T09:01:26;1.50;;;1.40;;
11486;SDS011;10510;47.942;9.442;2022-07-29T09:03:30;9.57;;;2.60;;
11486;SDS011;10510;47.942;9.442;2022-07-29T09:05:34;5.70;;;2.25;;
11486;SDS011;10510;47.942;9.442;2022-07-29T09:07:35;3.92;;;1.92;;
11486;SDS011;10510;47.942;9.442;2022-07-29T09:09:36;4.35;;;2.00;;
11486;SDS011;10510;47.942;9.442;2022-07-29T09:11:37;3.92;;;1.73;;
11486;SDS011;10510;47.942;9.442;2022-07-29T09:13:38;2.72;;;1.77;;
11486;SDS011;10510;47.942;9.442;2022-07-29T09:15:38;2.72;;;2.15;;
11486;SDS011;10510;47.942;9.442;2022-07-29T09:17:42;3.55;;;2.00;;
11486;SDS011;10510;47.942;9.442;2022-07-29T09:19:44;3.33;;;2.20;;
11486;SDS011;10510;47.942;9.442;2022-07-29T09:21:44;3.08;;;1.90;;
11486;SDS011;10510;47.942;9.442;2022-07-29T09:24:04;2.78;;;2.33;;
11486;SDS011;10510;47.942;9.442;2022-07-29T09:26:06;3.95;;;1.92;;
11486;SDS011;10510;47.942;9.442;2022-07-29T09:28:11;4.32;;;1.90;;
11486;SDS011;10510;47.942;9.442;2022-07-29T09:30:13;2.30;;;2.03;;
11486;SDS011;10510;47.942;9.442;2022-07-29T09:32:14;2.17;;;1.98;;
11486;SDS011;10510;47.942;9.442;2022-07-29T09:34:15;2.90;;;2.30;;
11486;SDS011;10510;47.942;9.442;2022-07-29T09:36:16;2.35;;;2.15;;
11486;SDS011;10510;47.942;9.442;2022-07-29T09:38:17;4.07;;;2.22;;
11486;SDS011;10510;47.942;9.442;2022-07-29T09:40:18;3.22;;;2.17;;
11486;SDS011;10510;47.942;9.442;2022-07-29T09:42:29;6.05;;;2.88;;
11486;SDS011;10510;47.942;9.442;2022-07-29T09:47:07;3.23;;;2.60;;
11486;SDS011;10510;47.942;9.442;2022-07-29T09:49:08;3.03;;;1.98;;
11486;SDS011;10510;47.942;9.442;2022-07-29T09:51:19;5.15;;;2.30;;
11486;SDS011;10510;47.942;9.442;2022-07-29T09:53:36;2.78;;;2.10;;
11486;SDS011;10510;47.942;9.442;2022-07-29T09:57:50;4.43;;;2.38;;
11486;SDS011;10510;47.942;9.442;2022-07-29T10:00:24;2.95;;;2.58;;
11486;SDS011;10510;47.942;9.442;2022-07-29T10:02:19;5.82;;;2.47;;
11486;SDS011;10510;47.942;9.442;2022-07-29T10:04:20;4.65;;;2.60;;
11486;SDS011;10510;47.942;9.442;2022-07-29T10:06:20;6.15;;;2.67;;
11486;SDS011;10510;47.942;9.442;2022-07-29T10:08:24;3.33;;;2.20;;
11486;SDS011;10510;47.942;9.442;2022-07-29T10:10:30;4.70;;;2.60;;
11486;SDS011;10510;47.942;9.442;2022-07-29T10:12:32;4.57;;;2.80;;
11486;SDS011;10510;47.942;9.442;2022-07-29T10:14:32;6.03;;;2.60;;
11486;SDS011;10510;47.942;9.442;2022-07-29T10:16:33;2.60;;;2.40;;
11486;SDS011;10510;47.942;9.442;2022-07-29T10:18:33;3.67;;;2.53;;
11486;SDS011;10510;47.942;9.442;2022-07-29T10:20:34;3.70;;;2.67;;
11486;SDS011;10510;47.942;9.442;2022-07-29T10:22:35;3.97;;;2.28;;
11486;SDS011;10510;47.942;9.442;2022-07-29T10:24:37;2.70;;;2.50;;
11486;SDS011;10510;47.942;9.442;2022-07-29T10:26:38;6.03;;;2.55;;
11486;SDS011;10510;47.942;9.442;2022-07-29T10:28:40;3.38;;;2.40;;
11486;SDS011;10510;47.942;9.442;2022-07-29T10:30:41;4.00;;;2.17;;
11486;SDS011;10510;47.942;9.442;2022-07-29T10:32:47;3.33;;;2.45;;
11486;SDS011;10510;47.942;9.442;2022-07-29T10:39:41;3.78;;;2.75;;
11486;SDS011;10510;47.942;9.442;2022-07-29T10:44:08;4.22;;;3.30;;
11486;SDS011;10510;47.942;9.442;2022-07-29T10:46:12;5.43;;;3.10;;
11486;SDS011;10510;47.942;9.442;2022-07-29T10:48:14;4.05;;;3.17;;
11486;SDS011;10510;47.942;9.442;2022-07-29T10:50:14;4.50;;;3.10;;
11486;SDS011;10510;47.942;9.442;2022-07-29T10:52:15;4.25;;;3.17;;
11486;SDS011;10510;47.942;9.442;2022-07-29T10:54:17;5.13;;;2.92;;
11486;SDS011;10510;47.942;9.442;2022-07-29T10:56:25;3.00;;;2.70;;
11486;SDS011;10510;47.942;9.442;2022-07-29T10:58:26;8.27;;;3.25;;
11486;SDS011;10510;47.942;9.442;2022-07-29T11:00:27;5.90;;;3.42;;
11486;SDS011;10510;47.942;9.442;2022-07-29T11:09:16;6.57;;;3.50;;
11486;SDS011;10510;47.942;9.442;2022-07-29T11:15:53;3.33;;;3.03;;
11486;SDS011;10510;47.942;9.442;2022-07-29T11:22:35;5.53;;;3.83;;
11486;SDS011;10510;47.942;9.442;2022-07-29T11:24:37;6.43;;;3.90;;
11486;SDS011;10510;47.942;9.442;2022-07-29T11:26:38;5.15;;;3.67;;
11486;SDS011;10510;47.942;9.442;2022-07-29T11:29:24;6.68;;;4.18;;
11486;SDS011;10510;47.942;9.442;2022-07-29T11:31:19;6.97;;;3.78;;
11486;SDS011;10510;47.942;9.442;2022-07-29T11:33:33;5.93;;;4.07;;
11486;SDS011;10510;47.942;9.442;2022-07-29T11:35:33;6.82;;;3.75;;
11486;SDS011;10510;47.942;9.442;2022-07-29T11:37:34;5.65;;;3.97;;
11486;SDS011;10510;47.942;9.442;2022-07-29T11:41:46;5.03;;;3.88;;
11486;SDS011;10510;47.942;9.442;2022-07-29T11:45:47;5.70;;;3.65;;
11486;SDS011;10510;47.942;9.442;2022-07-29T11:47:53;4.32;;;3.75;;
11486;SDS011;10510;47.942;9.442;2022-07-29T11:49:59;5.10;;;3.90;;
11486;SDS011;10510;47.942;9.442;2022-07-29T11:52:00;7.25;;;4.40;;
11486;SDS011;10510;47.942;9.442;2022-07-29T11:54:01;6.65;;;3.60;;
11486;SDS011;10510;47.942;9.442;2022-07-29T11:56:01;7.47;;;4.05;;
11486;SDS011;10510;47.942;9.442;2022-07-29T11:58:03;6.07;;;3.53;;
11486;SDS011;10510;47.942;9.442;2022-07-29T12:00:05;7.47;;;3.53;;
11486;SDS011;10510;47.942;9.442;2022-07-29T12:02:10;6.72;;;3.50;;
11486;SDS011;10510;47.942;9.442;2022-07-29T12:04:12;7.70;;;3.15;;
11486;SDS011;10510;47.942;9.442;2022-07-29T12:06:12;4.47;;;3.25;;
11486;SDS011;10510;47.942;9.442;2022-07-29T12:08:14;10.95;;;3.38;;
11486;SDS011;10510;47.942;9.442;2022-07-29T12:10:18;5.30;;;3.28;;
11486;SDS011;10510;47.942;9.442;2022-07-29T12:12:19;3.88;;;3.15;;
11486;SDS011;10510;47.942;9.442;2022-07-29T12:14:27;3.47;;;2.92;;
11486;SDS011;10510;47.942;9.442;2022-07-29T12:18:35;4.60;;;2.90;;
11486;SDS011;10510;47.942;9.442;2022-07-29T12:20:35;7.97;;;2.92;;
11486;SDS011;10510;47.942;9.442;2022-07-29T12:22:36;3.88;;;2.97;;
11486;SDS011;10510;47.942;9.442;2022-07-29T12:24:43;3.25;;;2.65;;
11486;SDS011;10510;47.942;9.442;2022-07-29T12:26:50;3.90;;;2.47;;
11486;SDS011;10510;47.942;9.442;2022-07-29T12:28:51;4.63;;;2.55;;
11486;SDS011;10510;47.942;9.442;2022-07-29T12:30:51;4.32;;;2.20;;
11486;SDS011;10510;47.942;9.442;2022-07-29T12:32:52;5.40;;;2.97;;
11486;SDS011;10510;47.942;9.442;2022-07-29T12:34:52;2.85;;;2.50;;
11486;SDS011;10510;47.942;9.442;2022-07-29T12:36:52;4.05;;;2.65;;
11486;SDS011;10510;47.942;9.442;2022-07-29T12:38:53;7.20;;;2.65;;
11486;SDS011;10510;47.942;9.442;2022-07-29T12:40:53;8.30;;;3.08;;
11486;SDS011;10510;47.942;9.442;2022-07-29T12:43:07;3.55;;;2.15;;
11486;SDS011;10510;47.942;9.442;2022-07-29T12:45:12;4.20;;;2.45;;
11486;SDS011;10510;47.942;9.442;2022-07-29T12:47:13;3.95;;;1.75;;
11486;SDS011;10510;47.942;9.442;2022-07-29T12:49:23;6.60;;;2.20;;
11486;SDS011;10510;47.942;9.442;2022-07-29T12:51:33;3.58;;;1.67;;
11486;SDS011;10510;47.942;9.442;2022-07-29T12:53:36;5.00;;;1.98;;
11486;SDS011;10510;47.942;9.442;2022-07-29T12:57:51;3.72;;;1.60;;
11486;SDS011;10510;47.942;9.442;2022-07-29T13:02:03;5.50;;;1.85;;
11486;SDS011;10510;47.942;9.442;2022-07-29T13:04:04;3.92;;;1.65;;
11486;SDS011;10510;47.942;9.442;2022-07-29T13:06:04;6.93;;;1.70;;
11486;SDS011;10510;47.942;9.442;2022-07-29T13:08:11;2.78;;;1.38;;